Time;durP1;ratioP1;P1;durP2;ratioP2;P2;SDS_P1;SDS_P2;PMS_P1;PMS_P2;Temp;Humidity;BMP_temperature;BMP_pressure;BME280_temperature;BME280_humidity;BME280_pressure;Samples;Min_cycle;Max_cycle;Signal;HPM_P1;HPM_P2
2022/01/16 00:01:06;;;;;;;;;77.50;61.00;;;;;;;;5098763;28;12388;-73
2022/01/16 00:04:14;;;;;;;;;74.75;59.50;;;;;;;;5099521;28;11593;-73
2022/01/16 00:06:20;;;;;;;;;77.75;62.50;;;;;;;;5091417;28;12292;-72
2022/01/16 00:08:46;;;;;;;;;70.25;57.00;;;;;;;;5099414;28;9519;-74
2022/01/16 00:11:12;;;;;;;;;80.00;60.50;;;;;;;;5099596;28;12289;-73
2022/01/16 00:13:37;;;;;;;;;80.25;63.00;;;;;;;;5099253;28;14018;-73
2022/01/16 00:16:02;;;;;;;;;68.25;55.25;;;;;;;;5099140;28;10406;-73
2022/01/16 00:18:40;;;;;;;;;77.75;58.00;;;;;;;;5099115;28;13630;-72
2022/01/16 00:21:05;;;;;;;;;72.50;59.50;;;;;;;;5080861;28;15728;-73
2022/01/16 00:23:30;;;;;;;;;69.50;59.00;;;;;;;;5099319;28;11992;-73
2022/01/16 00:25:56;;;;;;;;;78.75;61.25;;;;;;;;5080880;28;15175;-74
2022/01/16 00:28:23;;;;;;;;;73.25;59.00;;;;;;;;5098733;28;13442;-73
2022/01/16 00:30:49;;;;;;;;;75.75;60.50;;;;;;;;5098995;28;12315;-73
2022/01/16 00:33:15;;;;;;;;;73.25;57.50;;;;;;;;5099819;28;12340;-73
2022/01/16 00:35:40;;;;;;;;;71.25;58.00;;;;;;;;5099206;28;10337;-73
2022/01/16 00:38:06;;;;;;;;;85.25;63.25;;;;;;;;5098754;28;11520;-73
2022/01/16 00:40:31;;;;;;;;;75.25;59.75;;;;;;;;5096812;28;15868;-74
2022/01/16 00:42:57;;;;;;;;;79.25;63.50;;;;;;;;5098798;28;12192;-73
2022/01/16 00:45:25;;;;;;;;;75.50;61.25;;;;;;;;5098433;28;12220;-73
2022/01/16 00:47:51;;;;;;;;;83.00;65.00;;;;;;;;5098724;28;11506;-72
2022/01/16 00:50:16;;;;;;;;;83.00;66.25;;;;;;;;5098704;28;13524;-73
2022/01/16 00:52:41;;;;;;;;;89.50;67.00;;;;;;;;5098648;28;8774;-74
2022/01/16 00:55:07;;;;;;;;;88.00;67.00;;;;;;;;5098625;28;11848;-73
2022/01/16 00:57:33;;;;;;;;;88.50;68.25;;;;;;;;5080014;28;10845;-74
2022/01/16 00:59:58;;;;;;;;;97.25;76.50;;;;;;;;5098150;28;10561;-73
2022/01/16 01:02:24;;;;;;;;;100.25;79.75;;;;;;;;5098461;28;13523;-73
2022/01/16 01:04:50;;;;;;;;;93.50;75.00;;;;;;;;5098475;28;23410;-73
2022/01/16 01:07:15;;;;;;;;;102.25;84.25;;;;;;;;5098782;28;23387;-73
2022/01/16 01:09:41;;;;;;;;;98.25;85.25;;;;;;;;5098687;28;23330;-73
2022/01/16 01:12:06;;;;;;;;;93.75;74.00;;;;;;;;5100341;28;23232;-72
2022/01/16 01:14:41;;;;;;;;;103.00;82.25;;;;;;;;5102299;28;12522;-73
2022/01/16 01:17:09;;;;;;;;;91.75;73.25;;;;;;;;5101215;28;23772;-73
2022/01/16 01:19:35;;;;;;;;;96.75;77.50;;;;;;;;5101825;28;24872;-73
2022/01/16 01:22:01;;;;;;;;;92.25;75.50;;;;;;;;5101913;28;11567;-72
2022/01/16 01:24:29;;;;;;;;;94.25;75.50;;;;;;;;5101945;28;9891;-73
2022/01/16 01:27:02;;;;;;;;;95.25;74.75;;;;;;;;5084003;28;8965;-73
2022/01/16 01:29:29;;;;;;;;;92.50;74.25;;;;;;;;5101192;28;11912;-73
2022/01/16 01:31:55;;;;;;;;;93.25;75.00;;;;;;;;5102118;28;10692;-73
2022/01/16 01:34:20;;;;;;;;;95.25;71.00;;;;;;;;5101964;28;11592;-72
2022/01/16 01:36:48;;;;;;;;;96.75;74.25;;;;;;;;5101278;28;9531;-72
2022/01/16 01:39:14;;;;;;;;;95.50;79.00;;;;;;;;5101283;28;11836;-72
2022/01/16 01:41:39;;;;;;;;;83.25;65.75;;;;;;;;5101598;28;12046;-73
2022/01/16 01:52:17;;;;;;;;;94.25;80.75;;;;;;;;5101520;28;11429;-73
2022/01/16 01:54:42;;;;;;;;;95.25;74.75;;;;;;;;5100737;28;12213;-73
2022/01/16 01:57:07;;;;;;;;;94.25;78.00;;;;;;;;5101259;28;9815;-73
2022/01/16 01:59:32;;;;;;;;;93.00;72.25;;;;;;;;5100230;28;11628;-73
2022/01/16 02:01:58;;;;;;;;;92.00;72.00;;;;;;;;5082341;28;12309;-72
2022/01/16 02:04:23;;;;;;;;;95.00;73.00;;;;;;;;5100886;28;11404;-72
2022/01/16 02:06:49;;;;;;;;;91.50;71.25;;;;;;;;5101469;28;9570;-73
2022/01/16 02:09:14;;;;;;;;;90.00;69.00;;;;;;;;5101689;28;11500;-73
2022/01/16 02:11:40;;;;;;;;;94.75;74.00;;;;;;;;5101671;28;12201;-73
2022/01/16 02:14:51;;;;;;;;;94.25;74.00;;;;;;;;5101285;28;11694;-72
2022/01/16 02:33:23;;;;;;;;;87.50;70.00;;;;;;;;5100666;28;13513;-73
2022/01/16 02:35:48;;;;;;;;;82.25;64.50;;;;;;;;5100346;28;13724;-73
2022/01/16 02:38:13;;;;;;;;;84.00;64.75;;;;;;;;5100874;28;12413;-73
2022/01/16 02:40:43;;;;;;;;;89.25;70.00;;;;;;;;5100937;28;11389;-73
2022/01/16 02:43:08;;;;;;;;;86.75;68.50;;;;;;;;5100618;28;12537;-73
2022/01/16 02:45:37;;;;;;;;;85.00;67.00;;;;;;;;5082320;28;12336;-71
2022/01/16 02:48:06;;;;;;;;;90.25;69.75;;;;;;;;5099664;28;11642;-71
2022/01/16 02:50:32;;;;;;;;;84.50;67.50;;;;;;;;5099628;28;13294;-72
2022/01/16 02:52:58;;;;;;;;;90.75;70.00;;;;;;;;5100828;28;13362;-73
2022/01/16 02:55:24;;;;;;;;;87.25;68.00;;;;;;;;5100588;28;13519;-73
2022/01/16 02:57:50;;;;;;;;;90.25;69.00;;;;;;;;5100126;28;11619;-72
2022/01/16 08:06:03;;;;;;;;;89.00;73.25;;;;;;;;5161478;27;1418013;-75
2022/01/16 08:08:29;;;;;;;;;88.25;65.25;;;;;;;;5198654;27;22479;-73
2022/01/16 08:10:57;;;;;;;;;92.25;75.25;;;;;;;;5199655;22;11390;-78
2022/01/16 08:13:23;;;;;;;;;92.00;75.75;;;;;;;;5113791;28;11158;-80
2022/01/16 08:15:48;;;;;;;;;93.00;72.25;;;;;;;;5117257;27;8820;-79
2022/01/16 08:18:13;;;;;;;;;92.25;72.50;;;;;;;;5116685;27;10417;-79
2022/01/16 08:20:39;;;;;;;;;92.50;75.50;;;;;;;;5117879;27;12497;-80
2022/01/16 08:23:05;;;;;;;;;94.00;76.75;;;;;;;;5112138;28;9676;-77
2022/01/16 08:25:30;;;;;;;;;86.50;68.00;;;;;;;;5115209;28;12014;-77
2022/01/16 08:27:56;;;;;;;;;92.00;74.25;;;;;;;;5115094;28;13799;-78
2022/01/16 08:30:22;;;;;;;;;90.00;69.50;;;;;;;;5109473;27;13846;-78
2022/01/16 08:32:47;;;;;;;;;86.00;66.50;;;;;;;;5114456;28;12451;-80
2022/01/16 08:35:13;;;;;;;;;86.50;67.25;;;;;;;;5114959;28;10939;-79
2022/01/16 08:37:38;;;;;;;;;80.75;63.50;;;;;;;;5113382;28;10374;-79
2022/01/16 08:40:04;;;;;;;;;77.25;58.75;;;;;;;;5108558;28;10890;-78
2022/01/16 08:42:30;;;;;;;;;79.00;63.25;;;;;;;;5113566;28;13425;-70
2022/01/16 08:44:55;;;;;;;;;73.25;60.00;;;;;;;;5113486;28;11381;-72
2022/01/16 08:47:20;;;;;;;;;86.00;65.25;;;;;;;;5113939;28;11369;-71
2022/01/16 08:49:45;;;;;;;;;84.00;63.25;;;;;;;;5113791;28;13432;-71
2022/01/16 08:52:11;;;;;;;;;78.50;61.50;;;;;;;;5114270;28;8785;-73
2022/01/16 08:54:37;;;;;;;;;82.50;62.75;;;;;;;;5113135;28;13811;-71
2022/01/16 08:57:02;;;;;;;;;79.25;64.00;;;;;;;;5114264;28;13310;-69
2022/01/16 08:59:28;;;;;;;;;79.50;62.25;;;;;;;;5112189;28;14356;-70
2022/01/16 09:01:53;;;;;;;;;80.25;63.75;;;;;;;;5117744;27;10545;-71
2022/01/16 09:04:18;;;;;;;;;80.50;63.50;;;;;;;;5123515;27;12748;-70
2022/01/16 09:06:44;;;;;;;;;78.50;62.75;;;;;;;;5123386;27;8885;-69
2022/01/16 09:09:09;;;;;;;;;78.75;61.75;;;;;;;;5117831;27;13765;-71
2022/01/16 09:11:34;;;;;;;;;75.25;60.00;;;;;;;;5124795;27;9572;-71
2022/01/16 09:14:00;;;;;;;;;71.00;58.75;;;;;;;;5121230;27;13639;-70
2022/01/16 09:16:25;;;;;;;;;72.50;58.50;;;;;;;;5117473;27;12236;-72
2022/01/16 09:18:51;;;;;;;;;78.50;59.25;;;;;;;;5102673;28;11547;-75
2022/01/16 09:21:17;;;;;;;;;83.25;63.50;;;;;;;;5101718;28;11690;-79
2022/01/16 09:23:46;;;;;;;;;73.75;60.25;;;;;;;;5101079;28;13727;-70
2022/01/16 09:26:11;;;;;;;;;79.50;63.00;;;;;;;;5100880;28;13292;-74
2022/01/16 09:28:37;;;;;;;;;83.50;64.50;;;;;;;;5101775;28;11437;-75
2022/01/16 09:31:02;;;;;;;;;78.25;62.25;;;;;;;;5101999;28;13546;-75
2022/01/16 09:33:27;;;;;;;;;78.25;63.00;;;;;;;;5097813;28;14387;-76
2022/01/16 09:35:53;;;;;;;;;81.00;65.25;;;;;;;;5095758;28;9710;-73
2022/01/16 09:38:18;;;;;;;;;77.50;63.00;;;;;;;;5099423;28;13212;-71
2022/01/16 09:40:45;;;;;;;;;78.25;62.00;;;;;;;;5096616;27;13413;-70
2022/01/16 09:43:10;;;;;;;;;78.00;63.00;;;;;;;;5090990;28;10423;-72
2022/01/16 09:45:36;;;;;;;;;78.50;63.25;;;;;;;;5091144;28;9597;-71
2022/01/16 09:48:02;;;;;;;;;80.75;62.75;;;;;;;;5087839;28;10888;-73
2022/01/16 09:50:27;;;;;;;;;77.75;61.75;;;;;;;;5090992;28;12274;-72
2022/01/16 09:52:53;;;;;;;;;80.00;63.25;;;;;;;;5090557;28;10587;-71
2022/01/16 09:55:19;;;;;;;;;81.25;63.75;;;;;;;;5088600;28;12406;-70
2022/01/16 09:57:44;;;;;;;;;77.25;61.75;;;;;;;;5090745;28;10353;-72
2022/01/16 10:00:14;;;;;;;;;78.25;61.25;;;;;;;;5090588;28;10350;-72
2022/01/16 10:02:39;;;;;;;;;84.00;66.50;;;;;;;;5088682;28;10481;-73
2022/01/16 10:05:23;;;;;;;;;80.00;64.00;;;;;;;;5090327;28;13267;-73
2022/01/16 10:07:49;;;;;;;;;75.25;58.75;;;;;;;;5090944;28;11460;-72
2022/01/16 10:10:14;;;;;;;;;77.75;61.00;;;;;;;;5090431;28;13547;-71
2022/01/16 10:12:46;;;;;;;;;85.50;66.75;;;;;;;;5087797;28;12397;-72
2022/01/16 10:15:17;;;;;;;;;78.00;63.75;;;;;;;;5089830;28;14814;-69
2022/01/16 10:17:43;;;;;;;;;82.00;64.75;;;;;;;;5099172;28;12413;-70
2022/01/16 10:20:09;;;;;;;;;81.00;63.50;;;;;;;;5090316;28;10814;-71
2022/01/16 10:22:40;;;;;;;;;77.00;61.50;;;;;;;;5089884;28;13189;-69
2022/01/16 10:25:07;;;;;;;;;79.50;61.25;;;;;;;;5091231;28;10456;-69
2022/01/16 10:27:36;;;;;;;;;82.25;62.25;;;;;;;;5088782;28;11684;-69
2022/01/16 10:30:07;;;;;;;;;83.25;65.00;;;;;;;;5090308;28;13459;-73
2022/01/16 10:32:33;;;;;;;;;75.75;59.75;;;;;;;;5089286;28;11652;-69
2022/01/16 10:35:22;;;;;;;;;77.00;60.00;;;;;;;;5090318;28;13537;-70
2022/01/16 10:37:56;;;;;;;;;81.50;62.50;;;;;;;;5090322;28;13376;-70
2022/01/16 10:40:21;;;;;;;;;77.50;60.75;;;;;;;;5093780;28;13697;-71
2022/01/16 10:42:49;;;;;;;;;78.00;59.75;;;;;;;;5088611;28;13269;-71
2022/01/16 10:45:15;;;;;;;;;75.25;58.25;;;;;;;;5093537;28;11452;-70
2022/01/16 10:47:45;;;;;;;;;75.25;57.50;;;;;;;;5084750;28;10454;-73
2022/01/16 10:50:17;;;;;;;;;68.50;56.00;;;;;;;;5078512;28;9193;-70
2022/01/16 10:52:51;;;;;;;;;74.00;58.00;;;;;;;;5079763;28;13591;-71
2022/01/16 10:55:17;;;;;;;;;65.50;55.50;;;;;;;;5079613;28;12473;-75
2022/01/16 10:57:42;;;;;;;;;66.50;54.00;;;;;;;;5083620;28;13523;-71
2022/01/16 11:00:08;;;;;;;;;77.50;59.00;;;;;;;;5108361;27;12938;-73
2022/01/16 11:02:33;;;;;;;;;68.67;54.67;;;;;;;;5107304;27;10625;-70
2022/01/16 11:05:27;;;;;;;;;68.00;54.00;;;;;;;;5105453;28;13233;-77
2022/01/16 11:07:57;;;;;;;;;65.00;49.67;;;;;;;;5106714;28;8813;-72
2022/01/16 11:10:23;;;;;;;;;64.00;51.67;;;;;;;;5105242;28;14018;-76
2022/01/16 11:12:49;;;;;;;;;56.00;48.33;;;;;;;;5106368;27;9595;-74
2022/01/16 11:15:15;;;;;;;;;62.67;51.33;;;;;;;;5107461;27;13469;-74
2022/01/16 11:17:40;;;;;;;;;69.67;49.33;;;;;;;;5105364;28;12262;-74
2022/01/16 11:20:07;;;;;;;;;62.67;49.00;;;;;;;;5117746;28;11061;-77
2022/01/16 11:22:45;;;;;;;;;60.33;49.67;;;;;;;;5119544;27;11463;-75
2022/01/16 11:25:23;;;;;;;;;67.67;51.67;;;;;;;;5118517;28;12273;-74
2022/01/16 11:27:48;;;;;;;;;62.67;54.33;;;;;;;;5119013;27;11816;-76
2022/01/16 11:30:14;;;;;;;;;73.67;57.00;;;;;;;;5104709;27;11446;-75
2022/01/16 11:32:39;;;;;;;;;71.67;55.67;;;;;;;;5099737;28;13815;-75
2022/01/16 11:35:05;;;;;;;;;67.00;55.33;;;;;;;;5099739;28;11692;-74
2022/01/16 11:37:31;;;;;;;;;65.00;53.33;;;;;;;;5076403;28;13455;-77
2022/01/16 11:40:16;;;;;;;;;67.00;53.00;;;;;;;;5077849;28;9555;-77
2022/01/16 11:42:42;;;;;;;;;66.67;51.67;;;;;;;;5088393;28;11487;-76
2022/01/16 11:45:09;;;;;;;;;65.33;50.00;;;;;;;;5095689;28;11893;-78
2022/01/16 11:47:34;;;;;;;;;62.00;51.00;;;;;;;;5089361;28;11478;-75
2022/01/16 11:50:10;;;;;;;;;64.67;49.67;;;;;;;;5096484;28;10331;-74
2022/01/16 11:52:40;;;;;;;;;61.33;48.67;;;;;;;;5095595;28;14479;-73
2022/01/16 11:55:07;;;;;;;;;59.67;49.33;;;;;;;;5087221;28;10468;-72
2022/01/16 11:57:33;;;;;;;;;62.67;49.67;;;;;;;;5078512;28;13979;-73
2022/01/16 12:00:28;;;;;;;;;59.00;48.00;;;;;;;;5078976;28;13313;-71
2022/01/16 12:02:55;;;;;;;;;56.67;47.00;;;;;;;;5073742;28;14040;-71
2022/01/16 12:05:22;;;;;;;;;56.67;46.67;;;;;;;;5078834;28;11997;-75
2022/01/16 12:07:49;;;;;;;;;56.33;45.33;;;;;;;;5078674;28;8992;-74
2022/01/16 12:10:33;;;;;;;;;57.00;46.67;;;;;;;;5084579;28;10444;-74
2022/01/16 12:12:59;;;;;;;;;57.67;47.00;;;;;;;;5098254;28;11641;-75
2022/01/16 12:15:25;;;;;;;;;50.67;43.00;;;;;;;;5098968;28;10410;-74
2022/01/16 12:17:51;;;;;;;;;56.33;46.33;;;;;;;;5100860;28;9656;-74
2022/01/16 12:20:27;;;;;;;;;50.00;41.33;;;;;;;;5097904;28;11428;-75
2022/01/16 12:22:59;;;;;;;;;40.00;36.00;;;;;;;;5099449;28;10176;-75
2022/01/16 12:25:27;;;;;;;;;39.00;37.00;;;;;;;;5097214;28;14703;-75
2022/01/16 12:27:52;;;;;;;;;38.33;31.00;;;;;;;;5098121;28;11527;-74
2022/01/16 12:30:24;;;;;;;;;35.00;34.33;;;;;;;;5098390;28;11525;-74
2022/01/16 12:32:50;;;;;;;;;37.33;34.67;;;;;;;;5096907;28;13507;-75
2022/01/16 12:35:35;;;;;;;;;39.00;36.00;;;;;;;;5099365;28;13116;-74
2022/01/16 12:38:05;;;;;;;;;37.67;35.00;;;;;;;;5099248;28;12626;-74
2022/01/16 12:40:30;;;;;;;;;42.33;35.33;;;;;;;;5099555;28;11489;-74
2022/01/16 12:42:56;;;;;;;;;36.25;33.00;;;;;;;;5098913;28;13430;-73
2022/01/16 12:45:21;;;;;;;;;30.25;26.25;;;;;;;;5098618;28;14440;-74
2022/01/16 12:47:47;;;;;;;;;36.33;31.33;;;;;;;;5098871;28;12400;-74
2022/01/16 12:50:14;;;;;;;;;33.50;31.75;;;;;;;;5098738;28;9609;-73
2022/01/16 12:52:48;;;;;;;;;38.00;33.00;;;;;;;;5101892;28;11544;-74
2022/01/16 12:55:13;;;;;;;;;32.33;30.67;;;;;;;;5102111;28;11541;-74
2022/01/16 12:57:39;;;;;;;;;24.00;22.50;;;;;;;;5102079;28;11513;-73
2022/01/16 13:00:13;;;;;;;;;79.50;61.75;;;;;;;;5101806;28;14160;-73
2022/01/16 13:02:38;;;;;;;;;46.67;38.67;;;;;;;;5102182;28;13598;-74
2022/01/16 13:05:04;;;;;;;;;30.75;26.75;;;;;;;;5100272;28;14387;-74
2022/01/16 13:07:30;;;;;;;;;34.00;29.50;;;;;;;;5101934;28;13832;-73
2022/01/16 13:09:56;;;;;;;;;34.25;32.75;;;;;;;;5102444;28;11534;-74
2022/01/16 13:12:22;;;;;;;;;34.00;32.33;;;;;;;;5101952;28;12466;-75
2022/01/16 13:14:47;;;;;;;;;35.50;31.50;;;;;;;;5101866;28;11537;-75
2022/01/16 13:17:13;;;;;;;;;27.00;26.75;;;;;;;;5102275;28;11547;-75
2022/01/16 13:19:51;;;;;;;;;37.67;35.00;;;;;;;;5102018;28;13503;-75
2022/01/16 13:22:20;;;;;;;;;33.75;32.25;;;;;;;;5101621;28;13676;-74
2022/01/16 13:24:49;;;;;;;;;33.25;28.50;;;;;;;;5101917;28;11645;-75
2022/01/16 13:27:18;;;;;;;;;28.50;25.75;;;;;;;;5101433;28;12398;-75
2022/01/16 13:29:48;;;;;;;;;33.75;28.75;;;;;;;;5101704;28;13315;-74
2022/01/16 13:32:14;;;;;;;;;30.50;27.75;;;;;;;;5101827;28;12327;-74
2022/01/16 13:34:41;;;;;;;;;32.50;28.50;;;;;;;;5101616;28;11550;-73
2022/01/16 13:37:11;;;;;;;;;35.25;29.75;;;;;;;;5102206;28;11820;-78
2022/01/16 13:39:59;;;;;;;;;28.25;25.50;;;;;;;;5105060;28;11981;-77
2022/01/16 13:45:21;;;;;;;;;33.25;28.25;;;;;;;;5102109;28;12543;-78
2022/01/16 13:47:59;;;;;;;;;29.00;26.50;;;;;;;;5101989;28;11498;-78
2022/01/16 13:50:25;;;;;;;;;29.25;26.00;;;;;;;;5101814;28;13334;-78
2022/01/16 13:52:55;;;;;;;;;28.00;27.00;;;;;;;;5101077;28;12480;-78
2022/01/16 13:55:21;;;;;;;;;32.75;30.50;;;;;;;;5102213;28;11479;-78
2022/01/16 13:57:46;;;;;;;;;34.25;27.25;;;;;;;;5100152;28;13942;-77
2022/01/16 14:00:12;;;;;;;;;25.25;24.25;;;;;;;;5101217;28;12395;-77
2022/01/16 14:02:38;;;;;;;;;25.50;24.25;;;;;;;;5101644;28;11474;-77
2022/01/16 14:05:04;;;;;;;;;29.75;26.00;;;;;;;;5101481;28;8812;-78
2022/01/16 14:07:30;;;;;;;;;24.25;22.75;;;;;;;;5100843;28;11532;-78
2022/01/16 14:09:56;;;;;;;;;5.00;3.00;;;;;;;;5099672;28;13595;-78
2022/01/16 14:12:22;;;;;;;;;43.67;39.00;;;;;;;;5101282;28;22769;-78
2022/01/16 14:14:49;;;;;;;;;54.00;41.33;;;;;;;;5101058;28;23045;-78
2022/01/16 14:17:40;;;;;;;;;29.50;28.25;;;;;;;;5100721;28;14590;-78
2022/01/16 14:20:22;;;;;;;;;27.00;21.25;;;;;;;;5099879;28;12289;-78
2022/01/16 14:22:45;;;;;;;;;24.00;23.00;;;;;;;;5100363;28;11513;-78
2022/01/16 14:25:10;;;;;;;;;25.25;23.75;;;;;;;;5101328;28;11939;-79
2022/01/16 14:27:36;;;;;;;;;22.50;17.50;;;;;;;;5101555;28;11606;-78
2022/01/16 14:30:04;;;;;;;;;21.00;19.50;;;;;;;;5101573;28;12175;-77
2022/01/16 14:32:29;;;;;;;;;21.75;17.50;;;;;;;;5099390;28;12577;-77
2022/01/16 14:34:57;;;;;;;;;22.25;21.00;;;;;;;;5099198;28;11585;-77
2022/01/16 14:37:22;;;;;;;;;16.00;14.75;;;;;;;;5100763;28;13578;-78
2022/01/16 14:39:48;;;;;;;;;21.50;19.75;;;;;;;;5100819;28;13270;-77
2022/01/16 14:42:16;;;;;;;;;15.50;15.50;;;;;;;;5100303;28;12443;-78
2022/01/16 14:44:41;;;;;;;;;18.75;16.50;;;;;;;;5101350;28;13614;-77
2022/01/16 14:47:09;;;;;;;;;24.75;21.00;;;;;;;;5100852;28;12315;-76
2022/01/16 14:49:34;;;;;;;;;21.00;17.75;;;;;;;;5100752;28;13586;-77
2022/01/16 14:52:00;;;;;;;;;21.75;20.50;;;;;;;;5100493;28;12594;-78
2022/01/16 14:54:25;;;;;;;;;23.25;21.75;;;;;;;;5100217;28;12234;-77
2022/01/16 14:56:50;;;;;;;;;24.25;21.00;;;;;;;;5100112;28;12371;-77
2022/01/16 14:59:16;;;;;;;;;21.75;20.75;;;;;;;;5101073;28;11369;-77
2022/01/16 15:01:42;;;;;;;;;23.25;21.75;;;;;;;;5100736;28;11897;-78
2022/01/16 15:04:08;;;;;;;;;27.25;25.25;;;;;;;;5100364;28;9549;-77
2022/01/16 15:06:33;;;;;;;;;28.50;22.00;;;;;;;;5100346;28;10487;-78
2022/01/16 15:09:00;;;;;;;;;22.75;22.00;;;;;;;;5100310;28;11529;-78
2022/01/16 15:11:26;;;;;;;;;51.67;42.33;;;;;;;;5099792;28;9263;-78
2022/01/16 15:13:52;;;;;;;;;46.00;39.00;;;;;;;;5099724;28;13529;-78
2022/01/16 15:16:24;;;;;;;;;24.75;22.50;;;;;;;;5100176;28;13752;-77
2022/01/16 15:18:51;;;;;;;;;17.25;16.25;;;;;;;;5099644;28;13982;-78
2022/01/16 15:21:17;;;;;;;;;17.25;15.00;;;;;;;;5100566;28;13451;-77
2022/01/16 15:23:42;;;;;;;;;15.75;14.25;;;;;;;;5100404;28;11509;-78
2022/01/16 16:57:38;;;;;;;;;8.67;5.67;;;;;;;;5203373;27;77847;-75
2022/01/16 17:00:06;;;;;;;;;24.00;18.75;;;;;;;;5169243;27;22819;-74
2022/01/16 17:02:32;;;;;;;;;25.25;23.00;;;;;;;;5167942;27;25190;-77
2022/01/16 17:04:57;;;;;;;;;35.33;31.67;;;;;;;;5186545;27;12389;-78
2022/01/16 17:07:22;;;;;;;;;33.00;31.67;;;;;;;;5190358;27;13202;-81
2022/01/16 17:09:48;;;;;;;;;35.00;30.00;;;;;;;;5199258;27;8903;-78
2022/01/16 17:12:13;;;;;;;;;38.33;32.33;;;;;;;;5177582;27;13763;-79
2022/01/16 17:14:38;;;;;;;;;39.33;37.33;;;;;;;;5199065;27;11568;-76
2022/01/16 17:17:10;;;;;;;;;41.00;40.00;;;;;;;;5197840;27;8926;-78
2022/01/16 17:22:07;;;;;;;;;30.75;26.25;;;;;;;;5199225;27;13286;-79
2022/01/16 17:24:33;;;;;;;;;28.50;24.00;;;;;;;;5199171;27;11552;-84
2022/01/16 17:26:58;;;;;;;;;31.75;27.00;;;;;;;;5198498;27;13242;-82
2022/01/16 17:29:24;;;;;;;;;30.75;25.75;;;;;;;;5189631;27;12366;-84
2022/01/16 17:31:49;;;;;;;;;25.25;24.25;;;;;;;;5186233;27;11459;-83
2022/01/16 17:34:14;;;;;;;;;23.75;21.00;;;;;;;;5189299;27;12572;-83
2022/01/16 17:36:39;;;;;;;;;24.25;23.50;;;;;;;;5186084;27;11441;-84
2022/01/16 17:39:05;;;;;;;;;25.25;20.50;;;;;;;;5186904;27;11674;-80
2022/01/16 17:41:30;;;;;;;;;20.50;20.50;;;;;;;;5187816;27;8791;-84
2022/01/16 17:43:56;;;;;;;;;24.00;21.50;;;;;;;;5189964;27;9312;-84
2022/01/16 17:46:21;;;;;;;;;28.25;23.25;;;;;;;;5187484;27;10339;-83
2022/01/16 17:48:46;;;;;;;;;30.50;26.00;;;;;;;;5182695;27;11375;-80
2022/01/16 17:51:12;;;;;;;;;25.25;21.75;;;;;;;;5182426;27;13403;-85
2022/01/16 17:53:41;;;;;;;;;20.00;19.25;;;;;;;;5178307;27;15049;-79
2022/01/16 17:56:07;;;;;;;;;22.25;18.25;;;;;;;;5152649;27;13495;-86
2022/01/16 17:58:32;;;;;;;;;27.00;25.00;;;;;;;;5153646;27;12030;-73
2022/01/16 18:00:57;;;;;;;;;27.00;24.50;;;;;;;;5172454;27;13364;-75
2022/01/16 18:03:23;;;;;;;;;27.25;21.25;;;;;;;;5174667;27;8845;-73
2022/01/16 18:05:48;;;;;;;;;20.00;17.75;;;;;;;;5171705;27;10531;-76
2022/01/16 18:08:13;;;;;;;;;20.00;18.00;;;;;;;;5142722;27;11725;-76
2022/01/16 18:10:38;;;;;;;;;25.75;20.50;;;;;;;;5157994;27;8953;-75
2022/01/16 18:13:04;;;;;;;;;19.00;17.00;;;;;;;;5158613;27;12200;-76
2022/01/16 18:15:29;;;;;;;;;20.25;19.25;;;;;;;;5158051;27;13217;-76
2022/01/16 18:17:54;;;;;;;;;18.25;17.50;;;;;;;;5167002;27;13399;-76
2022/01/16 18:20:23;;;;;;;;;25.00;20.25;;;;;;;;5169279;27;13209;-76
2022/01/16 18:22:51;;;;;;;;;16.25;15.00;;;;;;;;5173116;27;13304;-75
2022/01/16 18:25:17;;;;;;;;;21.00;17.75;;;;;;;;5168342;27;13525;-75
2022/01/16 18:27:42;;;;;;;;;23.50;16.75;;;;;;;;5170183;27;13541;-75
2022/01/16 18:30:08;;;;;;;;;24.50;20.00;;;;;;;;5165961;27;10526;-75
2022/01/16 18:32:33;;;;;;;;;23.33;21.00;;;;;;;;5168738;27;12216;-77
2022/01/16 18:35:03;;;;;;;;;27.00;25.00;;;;;;;;5169758;27;10351;-76
2022/01/16 18:37:29;;;;;;;;;31.33;28.33;;;;;;;;5162808;27;10546;-76
2022/01/16 18:39:54;;;;;;;;;32.33;29.00;;;;;;;;5160210;27;13575;-75
2022/01/16 18:42:19;;;;;;;;;33.67;28.67;;;;;;;;5183664;27;11389;-80
2022/01/16 18:44:47;;;;;;;;;34.33;33.00;;;;;;;;5184420;27;11657;-75
2022/01/16 18:47:13;;;;;;;;;36.00;32.00;;;;;;;;5183755;27;13655;-74
2022/01/16 18:49:38;;;;;;;;;43.00;31.67;;;;;;;;5184257;27;10352;-77
2022/01/16 18:52:04;;;;;;;;;39.00;33.00;;;;;;;;5183309;27;13926;-76
2022/01/16 18:54:29;;;;;;;;;35.67;35.00;;;;;;;;5183863;27;13281;-78
2022/01/16 18:56:55;;;;;;;;;33.33;32.00;;;;;;;;5183369;27;10394;-77
2022/01/16 18:59:20;;;;;;;;;36.00;35.33;;;;;;;;5179813;27;10812;-86
2022/01/16 19:01:46;;;;;;;;;32.00;29.00;;;;;;;;5164843;27;11971;-76
2022/01/16 19:04:13;;;;;;;;;41.00;37.67;;;;;;;;5183645;27;12197;-76
2022/01/16 19:06:38;;;;;;;;;41.33;36.00;;;;;;;;5183956;27;13604;-75
2022/01/16 19:09:03;;;;;;;;;32.67;29.67;;;;;;;;5184057;27;10406;-77
2022/01/16 19:11:31;;;;;;;;;44.33;40.00;;;;;;;;5174283;27;13292;-76
2022/01/16 19:13:56;;;;;;;;;40.33;36.33;;;;;;;;5157721;27;13700;-77
2022/01/16 19:16:22;;;;;;;;;43.33;40.00;;;;;;;;5171619;27;12222;-78
2022/01/16 19:18:47;;;;;;;;;36.67;33.67;;;;;;;;5161378;27;12236;-78
2022/01/16 19:21:12;;;;;;;;;45.00;39.33;;;;;;;;5169799;27;13460;-75
2022/01/16 19:23:40;;;;;;;;;40.33;34.67;;;;;;;;5151486;27;14391;-75
2022/01/16 19:26:06;;;;;;;;;41.00;37.67;;;;;;;;5171640;27;12070;-76
2022/01/16 19:28:33;;;;;;;;;36.00;32.00;;;;;;;;5172614;27;10532;-75
2022/01/16 19:31:02;;;;;;;;;41.33;36.33;;;;;;;;5170131;27;13571;-76
2022/01/16 19:33:28;;;;;;;;;39.33;36.67;;;;;;;;5172125;27;13499;-77
2022/01/16 19:35:54;;;;;;;;;39.33;35.00;;;;;;;;5170915;27;14575;-76
2022/01/16 19:38:19;;;;;;;;;45.67;42.00;;;;;;;;5171723;27;8907;-77
2022/01/16 19:40:44;;;;;;;;;47.67;40.67;;;;;;;;5171876;27;12549;-74
2022/01/16 19:43:15;;;;;;;;;44.33;41.67;;;;;;;;5153642;27;11788;-75
2022/01/16 19:45:44;;;;;;;;;47.67;41.67;;;;;;;;5172154;27;10489;-75
2022/01/16 19:48:14;;;;;;;;;45.33;38.33;;;;;;;;5153107;27;10416;-74
2022/01/16 19:50:40;;;;;;;;;45.67;39.00;;;;;;;;5163447;27;12519;-71
2022/01/16 19:53:08;;;;;;;;;39.67;36.00;;;;;;;;5162152;27;10426;-73
2022/01/16 19:55:36;;;;;;;;;47.67;40.00;;;;;;;;5180768;27;10965;-75
2022/01/16 19:58:01;;;;;;;;;38.00;32.00;;;;;;;;5180534;27;12040;-75
2022/01/16 20:00:30;;;;;;;;;32.00;31.67;;;;;;;;5162413;27;14476;-76
2022/01/16 20:02:56;;;;;;;;;35.67;33.00;;;;;;;;5173592;27;12754;-76
2022/01/16 20:05:22;;;;;;;;;43.00;37.67;;;;;;;;5170743;27;11738;-77
2022/01/16 20:07:47;;;;;;;;;40.33;35.67;;;;;;;;5172627;27;13230;-76
2022/01/16 20:10:13;;;;;;;;;34.00;30.00;;;;;;;;5171557;27;10344;-78
2022/01/16 20:12:39;;;;;;;;;42.33;34.67;;;;;;;;5154972;22;13273;-80
2022/01/16 20:15:05;;;;;;;;;46.00;37.00;;;;;;;;5119036;28;13329;-80
2022/01/16 20:17:31;;;;;;;;;36.67;32.67;;;;;;;;5119349;28;11509;-77
2022/01/16 20:19:56;;;;;;;;;42.00;39.00;;;;;;;;5118107;28;13283;-75
2022/01/16 20:22:21;;;;;;;;;46.00;39.33;;;;;;;;5118575;28;14302;-76
2022/01/16 20:24:47;;;;;;;;;41.33;38.00;;;;;;;;5120183;28;11430;-76
2022/01/16 20:27:12;;;;;;;;;36.67;31.33;;;;;;;;5119982;28;12666;-75
2022/01/16 20:29:38;;;;;;;;;43.00;37.67;;;;;;;;5118126;27;14232;-77
2022/01/16 20:32:03;;;;;;;;;39.33;38.67;;;;;;;;5119115;28;13375;-76
2022/01/16 20:34:29;;;;;;;;;39.00;34.67;;;;;;;;5101266;28;14250;-72
2022/01/16 20:36:54;;;;;;;;;35.67;34.33;;;;;;;;5119178;28;11052;-76
2022/01/16 20:39:22;;;;;;;;;46.67;39.00;;;;;;;;5119278;28;11435;-77
2022/01/16 20:41:49;;;;;;;;;41.33;39.67;;;;;;;;5116715;28;14697;-77
2022/01/16 20:44:15;;;;;;;;;42.33;40.00;;;;;;;;5119600;28;11643;-77
2022/01/16 20:46:41;;;;;;;;;36.67;35.67;;;;;;;;5119820;28;12249;-76
2022/01/16 20:49:08;;;;;;;;;44.00;40.00;;;;;;;;5116595;28;14557;-77
2022/01/16 20:51:33;;;;;;;;;42.00;37.33;;;;;;;;5119239;28;13488;-76
2022/01/16 20:54:03;;;;;;;;;42.00;39.00;;;;;;;;5119231;28;12269;-75
2022/01/16 20:56:28;;;;;;;;;45.67;42.00;;;;;;;;5119980;28;9149;-77
2022/01/16 20:58:54;;;;;;;;;45.67;39.00;;;;;;;;5119558;28;12060;-76
2022/01/16 21:01:20;;;;;;;;;41.33;37.33;;;;;;;;5101537;28;8919;-76
2022/01/16 21:03:45;;;;;;;;;45.00;41.33;;;;;;;;5119864;28;11536;-76
2022/01/16 21:06:13;;;;;;;;;43.00;40.00;;;;;;;;5120342;28;11709;-76
2022/01/16 21:08:39;;;;;;;;;51.33;43.00;;;;;;;;5119608;28;11729;-75
2022/01/16 21:11:05;;;;;;;;;43.67;38.00;;;;;;;;5119565;28;13751;-75
2022/01/16 21:13:30;;;;;;;;;45.67;38.67;;;;;;;;5119842;28;12269;-77
2022/01/16 21:15:56;;;;;;;;;42.33;37.67;;;;;;;;5119791;28;12568;-76
2022/01/16 21:18:24;;;;;;;;;45.33;40.67;;;;;;;;5120150;28;10649;-76
2022/01/16 21:20:51;;;;;;;;;39.00;35.00;;;;;;;;5119263;28;9609;-75
2022/01/16 21:23:16;;;;;;;;;40.67;39.67;;;;;;;;5119589;28;13486;-75
2022/01/16 21:25:42;;;;;;;;;44.00;39.67;;;;;;;;5119624;28;13286;-77